sensor_id;sensor_type;location;lat;lon;timestamp;P1;durP1;ratioP1;P2;durP2;ratioP2
22851;SDS011;11592;45.460;9.240;2023-02-28T00:01:23;15.70;;;8.30;;
22851;SDS011;11592;45.460;9.240;2023-02-28T00:03:50;11.20;;;7.63;;
22851;SDS011;11592;45.460;9.240;2023-02-28T00:06:16;11.52;;;6.97;;
22851;SDS011;11592;45.460;9.240;2023-02-28T00:08:44;13.35;;;6.82;;
22851;SDS011;11592;45.460;9.240;2023-02-28T00:11:12;10.00;;;6.13;;
22851;SDS011;11592;45.460;9.240;2023-02-28T00:13:42;12.60;;;5.63;;
22851;SDS011;11592;45.460;9.240;2023-02-28T00:16:13;12.27;;;6.85;;
22851;SDS011;11592;45.460;9.240;2023-02-28T00:18:42;9.57;;;6.20;;
22851;SDS011;11592;45.460;9.240;2023-02-28T00:21:09;13.00;;;5.88;;
22851;SDS011;11592;45.460;9.240;2023-02-28T00:23:36;17.20;;;5.78;;
22851;SDS011;11592;45.460;9.240;2023-02-28T00:26:03;12.60;;;5.97;;
22851;SDS011;11592;45.460;9.240;2023-02-28T00:28:30;15.02;;;6.20;;
22851;SDS011;11592;45.460;9.240;2023-02-28T00:30:57;9.70;;;5.60;;
22851;SDS011;11592;45.460;9.240;2023-02-28T00:33:26;11.40;;;5.38;;
22851;SDS011;11592;45.460;9.240;2023-02-28T00:36:00;11.43;;;5.75;;
22851;SDS011;11592;45.460;9.240;2023-02-28T00:38:30;11.13;;;5.50;;
22851;SDS011;11592;45.460;9.240;2023-02-28T00:40:57;10.95;;;5.93;;
22851;SDS011;11592;45.460;9.240;2023-02-28T00:43:24;11.77;;;5.72;;
22851;SDS011;11592;45.460;9.240;2023-02-28T00:45:51;9.68;;;5.55;;
22851;SDS011;11592;45.460;9.240;2023-02-28T00:48:18;10.05;;;6.13;;
22851;SDS011;11592;45.460;9.240;2023-02-28T00:50:47;14.65;;;5.60;;
22851;SDS011;11592;45.460;9.240;2023-02-28T00:53:15;9.52;;;5.88;;
22851;SDS011;11592;45.460;9.240;2023-02-28T00:55:42;11.98;;;6.00;;
22851;SDS011;11592;45.460;9.240;2023-02-28T00:58:09;10.82;;;6.03;;
22851;SDS011;11592;45.460;9.240;2023-02-28T01:00:36;10.07;;;5.30;;
22851;SDS011;11592;45.460;9.240;2023-02-28T01:03:02;11.15;;;5.80;;
22851;SDS011;11592;45.460;9.240;2023-02-28T01:05:29;9.60;;;5.97;;
22851;SDS011;11592;45.460;9.240;2023-02-28T01:07:56;12.18;;;5.18;;
22851;SDS011;11592;45.460;9.240;2023-02-28T01:10:23;11.23;;;5.93;;
22851;SDS011;11592;45.460;9.240;2023-02-28T01:12:50;10.38;;;6.28;;
22851;SDS011;11592;45.460;9.240;2023-02-28T01:15:17;13.68;;;5.85;;
22851;SDS011;11592;45.460;9.240;2023-02-28T01:17:44;14.23;;;6.63;;
22851;SDS011;11592;45.460;9.240;2023-02-28T01:20:11;10.43;;;6.40;;
22851;SDS011;11592;45.460;9.240;2023-02-28T01:22:38;14.35;;;6.70;;
22851;SDS011;11592;45.460;9.240;2023-02-28T01:25:04;11.05;;;6.18;;
22851;SDS011;11592;45.460;9.240;2023-02-28T01:27:33;10.80;;;6.20;;
22851;SDS011;11592;45.460;9.240;2023-02-28T01:30:00;13.77;;;6.60;;
22851;SDS011;11592;45.460;9.240;2023-02-28T01:32:26;10.85;;;5.78;;
22851;SDS011;11592;45.460;9.240;2023-02-28T01:34:53;12.95;;;6.60;;
22851;SDS011;11592;45.460;9.240;2023-02-28T01:37:20;10.45;;;5.72;;
22851;SDS011;11592;45.460;9.240;2023-02-28T01:39:47;10.27;;;5.80;;
22851;SDS011;11592;45.460;9.240;2023-02-28T01:42:13;9.45;;;5.88;;
22851;SDS011;11592;45.460;9.240;2023-02-28T01:47:36;14.15;;;6.30;;
22851;SDS011;11592;45.460;9.240;2023-02-28T01:50:07;14.55;;;5.70;;
22851;SDS011;11592;45.460;9.240;2023-02-28T01:52:39;12.85;;;6.13;;
22851;SDS011;11592;45.460;9.240;2023-02-28T01:55:07;10.65;;;5.32;;
22851;SDS011;11592;45.460;9.240;2023-02-28T01:57:40;11.70;;;6.30;;
22851;SDS011;11592;45.460;9.240;2023-02-28T02:00:13;12.30;;;6.57;;
22851;SDS011;11592;45.460;9.240;2023-02-28T02:02:42;15.80;;;6.70;;
22851;SDS011;11592;45.460;9.240;2023-02-28T02:05:21;10.15;;;6.60;;
22851;SDS011;11592;45.460;9.240;2023-02-28T02:07:55;11.35;;;6.10;;
22851;SDS011;11592;45.460;9.240;2023-02-28T02:10:31;11.77;;;5.93;;
22851;SDS011;11592;45.460;9.240;2023-02-28T02:36:42;12.48;;;5.90;;
22851;SDS011;11592;45.460;9.240;2023-02-28T02:41:58;9.82;;;6.15;;
22851;SDS011;11592;45.460;9.240;2023-02-28T02:47:20;7.63;;;5.43;;
22851;SDS011;11592;45.460;9.240;2023-02-28T02:49:54;10.57;;;5.68;;
22851;SDS011;11592;45.460;9.240;2023-02-28T02:52:29;11.18;;;5.43;;
22851;SDS011;11592;45.460;9.240;2023-02-28T02:54:58;12.13;;;5.97;;
22851;SDS011;11592;45.460;9.240;2023-02-28T02:57:38;10.80;;;6.05;;
22851;SDS011;11592;45.460;9.240;2023-02-28T03:00:12;9.60;;;5.68;;
22851;SDS011;11592;45.460;9.240;2023-02-28T03:02:43;9.60;;;5.93;;
22851;SDS011;11592;45.460;9.240;2023-02-28T03:05:14;13.23;;;5.88;;
22851;SDS011;11592;45.460;9.240;2023-02-28T03:07:46;11.32;;;5.63;;
22851;SDS011;11592;45.460;9.240;2023-02-28T03:10:26;10.35;;;5.63;;
22851;SDS011;11592;45.460;9.240;2023-02-28T03:13:00;9.27;;;5.93;;
22851;SDS011;11592;45.460;9.240;2023-02-28T03:15:36;9.43;;;5.93;;
22851;SDS011;11592;45.460;9.240;2023-02-28T03:18:34;10.63;;;5.35;;
22851;SDS011;11592;45.460;9.240;2023-02-28T03:23:38;11.20;;;6.50;;
22851;SDS011;11592;45.460;9.240;2023-02-28T03:26:21;12.00;;;6.35;;
22851;SDS011;11592;45.460;9.240;2023-02-28T03:31:59;11.80;;;6.35;;
22851;SDS011;11592;45.460;9.240;2023-02-28T03:34:33;11.55;;;6.40;;
22851;SDS011;11592;45.460;9.240;2023-02-28T03:37:07;15.55;;;6.47;;
22851;SDS011;11592;45.460;9.240;2023-02-28T03:39:49;9.10;;;6.10;;
22851;SDS011;11592;45.460;9.240;2023-02-28T03:42:25;11.35;;;6.43;;
22851;SDS011;11592;45.460;9.240;2023-02-28T03:47:29;13.85;;;6.25;;
22851;SDS011;11592;45.460;9.240;2023-02-28T03:52:58;10.35;;;6.20;;
22851;SDS011;11592;45.460;9.240;2023-02-28T03:55:37;13.18;;;6.95;;
22851;SDS011;11592;45.460;9.240;2023-02-28T04:01:18;10.32;;;6.30;;
22851;SDS011;11592;45.460;9.240;2023-02-28T04:03:52;10.35;;;6.55;;
22851;SDS011;11592;45.460;9.240;2023-02-28T04:06:20;12.60;;;6.90;;
22851;SDS011;11592;45.460;9.240;2023-02-28T04:08:48;12.40;;;6.35;;
22851;SDS011;11592;45.460;9.240;2023-02-28T04:13:49;10.75;;;6.15;;
22851;SDS011;11592;45.460;9.240;2023-02-28T04:16:16;10.75;;;6.20;;
22851;SDS011;11592;45.460;9.240;2023-02-28T04:19:00;10.60;;;6.22;;
22851;SDS011;11592;45.460;9.240;2023-02-28T04:21:32;11.25;;;6.53;;
22851;SDS011;11592;45.460;9.240;2023-02-28T04:24:02;8.48;;;5.85;;
22851;SDS011;11592;45.460;9.240;2023-02-28T04:26:30;10.40;;;6.15;;
22851;SDS011;11592;45.460;9.240;2023-02-28T04:29:02;14.65;;;6.90;;
22851;SDS011;11592;45.460;9.240;2023-02-28T04:31:31;13.27;;;7.15;;
22851;SDS011;11592;45.460;9.240;2023-02-28T04:33:58;9.43;;;6.35;;
22851;SDS011;11592;45.460;9.240;2023-02-28T04:36:26;11.98;;;6.45;;
22851;SDS011;11592;45.460;9.240;2023-02-28T04:38:53;11.65;;;6.63;;
22851;SDS011;11592;45.460;9.240;2023-02-28T04:41:20;11.27;;;6.43;;
22851;SDS011;11592;45.460;9.240;2023-02-28T04:43:47;11.15;;;5.88;;
22851;SDS011;11592;45.460;9.240;2023-02-28T04:46:14;11.43;;;6.43;;
22851;SDS011;11592;45.460;9.240;2023-02-28T04:48:41;14.05;;;7.15;;
22851;SDS011;11592;45.460;9.240;2023-02-28T04:51:11;10.20;;;6.10;;
22851;SDS011;11592;45.460;9.240;2023-02-28T04:53:39;11.20;;;6.35;;
22851;SDS011;11592;45.460;9.240;2023-02-28T04:56:08;12.45;;;6.32;;
22851;SDS011;11592;45.460;9.240;2023-02-28T04:58:38;12.95;;;6.88;;
22851;SDS011;11592;45.460;9.240;2023-02-28T05:01:06;12.30;;;6.50;;
22851;SDS011;11592;45.460;9.240;2023-02-28T05:03:42;13.48;;;6.65;;
22851;SDS011;11592;45.460;9.240;2023-02-28T05:06:10;12.80;;;6.97;;
22851;SDS011;11592;45.460;9.240;2023-02-28T05:08:38;16.80;;;6.75;;
22851;SDS011;11592;45.460;9.240;2023-02-28T05:11:47;15.18;;;6.82;;
22851;SDS011;11592;45.460;9.240;2023-02-28T05:14:01;9.57;;;5.93;;
22851;SDS011;11592;45.460;9.240;2023-02-28T05:16:30;10.43;;;6.13;;
22851;SDS011;11592;45.460;9.240;2023-02-28T05:18:57;11.88;;;6.05;;
22851;SDS011;11592;45.460;9.240;2023-02-28T05:21:31;12.38;;;6.88;;
22851;SDS011;11592;45.460;9.240;2023-02-28T05:23:59;9.13;;;6.20;;
22851;SDS011;11592;45.460;9.240;2023-02-28T05:26:28;16.05;;;6.80;;
22851;SDS011;11592;45.460;9.240;2023-02-28T05:28:55;11.77;;;6.38;;
22851;SDS011;11592;45.460;9.240;2023-02-28T05:31:22;12.60;;;7.30;;
22851;SDS011;11592;45.460;9.240;2023-02-28T05:33:50;11.18;;;6.93;;
22851;SDS011;11592;45.460;9.240;2023-02-28T05:36:17;12.65;;;7.32;;
22851;SDS011;11592;45.460;9.240;2023-02-28T05:38:48;10.68;;;6.30;;
22851;SDS011;11592;45.460;9.240;2023-02-28T05:41:16;14.45;;;6.85;;
22851;SDS011;11592;45.460;9.240;2023-02-28T05:43:45;13.57;;;7.00;;
22851;SDS011;11592;45.460;9.240;2023-02-28T05:46:13;14.35;;;6.57;;
22851;SDS011;11592;45.460;9.240;2023-02-28T05:48:42;12.65;;;6.82;;
22851;SDS011;11592;45.460;9.240;2023-02-28T05:51:13;12.18;;;7.05;;
22851;SDS011;11592;45.460;9.240;2023-02-28T05:53:40;13.70;;;7.32;;
22851;SDS011;11592;45.460;9.240;2023-02-28T05:56:06;15.30;;;7.28;;
22851;SDS011;11592;45.460;9.240;2023-02-28T05:58:33;15.25;;;7.18;;
22851;SDS011;11592;45.460;9.240;2023-02-28T06:01:18;14.05;;;7.57;;
22851;SDS011;11592;45.460;9.240;2023-02-28T06:03:50;16.45;;;8.15;;
22851;SDS011;11592;45.460;9.240;2023-02-28T06:06:17;14.13;;;7.70;;
22851;SDS011;11592;45.460;9.240;2023-02-28T06:08:44;13.40;;;7.43;;
22851;SDS011;11592;45.460;9.240;2023-02-28T06:11:12;17.05;;;7.40;;
22851;SDS011;11592;45.460;9.240;2023-02-28T06:13:39;13.70;;;7.80;;
22851;SDS011;11592;45.460;9.240;2023-02-28T06:16:05;11.65;;;7.53;;
22851;SDS011;11592;45.460;9.240;2023-02-28T06:18:33;14.50;;;7.40;;
22851;SDS011;11592;45.460;9.240;2023-02-28T06:21:00;12.32;;;7.40;;
22851;SDS011;11592;45.460;9.240;2023-02-28T06:23:26;14.50;;;7.05;;
22851;SDS011;11592;45.460;9.240;2023-02-28T06:25:53;15.60;;;7.90;;
22851;SDS011;11592;45.460;9.240;2023-02-28T06:28:25;13.23;;;7.63;;
22851;SDS011;11592;45.460;9.240;2023-02-28T06:30:52;17.00;;;7.43;;
22851;SDS011;11592;45.460;9.240;2023-02-28T06:33:19;12.25;;;7.28;;
22851;SDS011;11592;45.460;9.240;2023-02-28T06:35:46;10.70;;;7.32;;
22851;SDS011;11592;45.460;9.240;2023-02-28T06:38:16;14.52;;;7.85;;
22851;SDS011;11592;45.460;9.240;2023-02-28T06:40:44;13.77;;;7.03;;
22851;SDS011;11592;45.460;9.240;2023-02-28T06:43:11;17.88;;;7.72;;
22851;SDS011;11592;45.460;9.240;2023-02-28T06:45:43;14.98;;;7.78;;
22851;SDS011;11592;45.460;9.240;2023-02-28T06:48:10;14.73;;;7.90;;
22851;SDS011;11592;45.460;9.240;2023-02-28T06:50:37;12.32;;;7.78;;
22851;SDS011;11592;45.460;9.240;2023-02-28T06:53:03;14.48;;;7.93;;
22851;SDS011;11592;45.460;9.240;2023-02-28T06:55:30;13.15;;;8.20;;
22851;SDS011;11592;45.460;9.240;2023-02-28T06:57:58;12.57;;;7.35;;
22851;SDS011;11592;45.460;9.240;2023-02-28T07:00:25;14.35;;;7.85;;
22851;SDS011;11592;45.460;9.240;2023-02-28T07:02:51;15.10;;;8.63;;
22851;SDS011;11592;45.460;9.240;2023-02-28T07:05:20;17.05;;;8.45;;
22851;SDS011;11592;45.460;9.240;2023-02-28T07:07:46;14.88;;;8.40;;
22851;SDS011;11592;45.460;9.240;2023-02-28T07:10:13;15.82;;;8.75;;
22851;SDS011;11592;45.460;9.240;2023-02-28T07:12:45;14.75;;;9.27;;
22851;SDS011;11592;45.460;9.240;2023-02-28T07:15:12;16.98;;;8.30;;
22851;SDS011;11592;45.460;9.240;2023-02-28T07:17:38;17.00;;;9.30;;
22851;SDS011;11592;45.460;9.240;2023-02-28T07:20:05;16.15;;;8.07;;
22851;SDS011;11592;45.460;9.240;2023-02-28T07:22:33;20.80;;;8.77;;
22851;SDS011;11592;45.460;9.240;2023-02-28T07:25:00;14.95;;;8.45;;
22851;SDS011;11592;45.460;9.240;2023-02-28T07:27:27;14.65;;;8.88;;
22851;SDS011;11592;45.460;9.240;2023-02-28T07:29:53;19.45;;;9.30;;
22851;SDS011;11592;45.460;9.240;2023-02-28T07:32:21;18.63;;;8.40;;
22851;SDS011;11592;45.460;9.240;2023-02-28T07:34:48;17.65;;;8.50;;
22851;SDS011;11592;45.460;9.240;2023-02-28T07:37:14;15.07;;;9.18;;
22851;SDS011;11592;45.460;9.240;2023-02-28T07:39:41;15.23;;;8.85;;
22851;SDS011;11592;45.460;9.240;2023-02-28T07:42:08;14.75;;;8.55;;
22851;SDS011;11592;45.460;9.240;2023-02-28T07:44:40;14.60;;;8.98;;
22851;SDS011;11592;45.460;9.240;2023-02-28T07:47:09;17.05;;;9.45;;
22851;SDS011;11592;45.460;9.240;2023-02-28T07:49:36;15.18;;;9.43;;
22851;SDS011;11592;45.460;9.240;2023-02-28T07:52:04;17.27;;;8.57;;
22851;SDS011;11592;45.460;9.240;2023-02-28T07:54:32;16.63;;;9.25;;
22851;SDS011;11592;45.460;9.240;2023-02-28T07:56:59;16.05;;;9.18;;
22851;SDS011;11592;45.460;9.240;2023-02-28T07:59:26;21.98;;;9.70;;
22851;SDS011;11592;45.460;9.240;2023-02-28T08:01:56;15.20;;;9.00;;
22851;SDS011;11592;45.460;9.240;2023-02-28T08:04:24;18.67;;;9.73;;
22851;SDS011;11592;45.460;9.240;2023-02-28T08:06:50;18.55;;;10.07;;
22851;SDS011;11592;45.460;9.240;2023-02-28T08:09:22;14.70;;;8.85;;
22851;SDS011;11592;45.460;9.240;2023-02-28T08:11:49;13.82;;;9.02;;
22851;SDS011;11592;45.460;9.240;2023-02-28T08:14:16;17.48;;;9.45;;
22851;SDS011;11592;45.460;9.240;2023-02-28T08:16:43;17.80;;;9.98;;
22851;SDS011;11592;45.460;9.240;2023-02-28T08:19:10;19.25;;;9.45;;
22851;SDS011;11592;45.460;9.240;2023-02-28T08:21:37;18.77;;;9.82;;
22851;SDS011;11592;45.460;9.240;2023-02-28T08:24:04;19.13;;;9.90;;
22851;SDS011;11592;45.460;9.240;2023-02-28T08:26:31;17.75;;;10.05;;
22851;SDS011;11592;45.460;9.240;2023-02-28T08:28:58;19.13;;;9.38;;
22851;SDS011;11592;45.460;9.240;2023-02-28T08:31:26;17.38;;;9.48;;
22851;SDS011;11592;45.460;9.240;2023-02-28T08:33:54;18.15;;;9.98;;
22851;SDS011;11592;45.460;9.240;2023-02-28T08:36:23;15.82;;;9.85;;
22851;SDS011;11592;45.460;9.240;2023-02-28T08:38:50;18.10;;;10.38;;
22851;SDS011;11592;45.460;9.240;2023-02-28T08:41:17;16.70;;;9.00;;
22851;SDS011;11592;45.460;9.240;2023-02-28T08:43:44;16.45;;;9.95;;
22851;SDS011;11592;45.460;9.240;2023-02-28T08:46:12;17.45;;;9.30;;
22851;SDS011;11592;45.460;9.240;2023-02-28T08:48:40;16.52;;;8.88;;
22851;SDS011;11592;45.460;9.240;2023-02-28T08:51:08;15.75;;;9.68;;
22851;SDS011;11592;45.460;9.240;2023-02-28T08:53:37;15.57;;;8.60;;
22851;SDS011;11592;45.460;9.240;2023-02-28T08:56:06;11.18;;;7.75;;
22851;SDS011;11592;45.460;9.240;2023-02-28T08:58:35;15.48;;;9.05;;
22851;SDS011;11592;45.460;9.240;2023-02-28T09:01:09;14.98;;;9.63;;
22851;SDS011;11592;45.460;9.240;2023-02-28T09:03:38;17.10;;;9.45;;
22851;SDS011;11592;45.460;9.240;2023-02-28T09:06:08;17.65;;;9.23;;
22851;SDS011;11592;45.460;9.240;2023-02-28T09:08:35;11.82;;;8.13;;
22851;SDS011;11592;45.460;9.240;2023-02-28T09:11:03;17.08;;;9.60;;
22851;SDS011;11592;45.460;9.240;2023-02-28T09:13:30;14.43;;;8.88;;
22851;SDS011;11592;45.460;9.240;2023-02-28T09:15:58;15.13;;;9.10;;
22851;SDS011;11592;45.460;9.240;2023-02-28T09:18:27;17.08;;;10.23;;
22851;SDS011;11592;45.460;9.240;2023-02-28T09:20:53;18.67;;;10.52;;
22851;SDS011;11592;45.460;9.240;2023-02-28T09:23:20;16.25;;;9.38;;
22851;SDS011;11592;45.460;9.240;2023-02-28T09:25:48;15.38;;;9.07;;
22851;SDS011;11592;45.460;9.240;2023-02-28T09:28:17;15.85;;;8.48;;
22851;SDS011;11592;45.460;9.240;2023-02-28T09:30:45;13.90;;;8.32;;
22851;SDS011;11592;45.460;9.240;2023-02-28T09:33:13;14.13;;;8.48;;
22851;SDS011;11592;45.460;9.240;2023-02-28T09:35:42;14.32;;;9.10;;
22851;SDS011;11592;45.460;9.240;2023-02-28T09:38:09;13.95;;;8.07;;
22851;SDS011;11592;45.460;9.240;2023-02-28T09:40:37;17.80;;;8.93;;
22851;SDS011;11592;45.460;9.240;2023-02-28T09:43:15;13.70;;;8.95;;
22851;SDS011;11592;45.460;9.240;2023-02-28T09:45:56;14.20;;;8.68;;
22851;SDS011;11592;45.460;9.240;2023-02-28T09:48:31;14.82;;;8.98;;
22851;SDS011;11592;45.460;9.240;2023-02-28T09:53:54;13.40;;;8.07;;
22851;SDS011;11592;45.460;9.240;2023-02-28T09:56:36;14.57;;;7.50;;
22851;SDS011;11592;45.460;9.240;2023-02-28T09:59:17;11.93;;;8.30;;
22851;SDS011;11592;45.460;9.240;2023-02-28T10:05:05;13.98;;;7.70;;
22851;SDS011;11592;45.460;9.240;2023-02-28T10:10:43;15.38;;;8.63;;
22851;SDS011;11592;45.460;9.240;2023-02-28T10:13:15;16.52;;;8.80;;
22851;SDS011;11592;45.460;9.240;2023-02-28T10:18:42;13.90;;;8.45;;
22851;SDS011;11592;45.460;9.240;2023-02-28T10:21:24;13.63;;;7.97;;
22851;SDS011;11592;45.460;9.240;2023-02-28T10:24:04;12.23;;;8.55;;
22851;SDS011;11592;45.460;9.240;2023-02-28T10:26:41;15.18;;;8.65;;
22851;SDS011;11592;45.460;9.240;2023-02-28T10:29:11;12.88;;;7.82;;
22851;SDS011;11592;45.460;9.240;2023-02-28T10:31:38;15.35;;;9.45;;
22851;SDS011;11592;45.460;9.240;2023-02-28T10:34:06;15.57;;;8.10;;
22851;SDS011;11592;45.460;9.240;2023-02-28T10:36:33;18.55;;;8.70;;
22851;SDS011;11592;45.460;9.240;2023-02-28T10:39:01;16.85;;;9.05;;
22851;SDS011;11592;45.460;9.240;2023-02-28T10:42:05;13.60;;;8.48;;
22851;SDS011;11592;45.460;9.240;2023-02-28T10:47:50;12.77;;;8.05;;
22851;SDS011;11592;45.460;9.240;2023-02-28T10:56:25;13.57;;;8.57;;
22851;SDS011;11592;45.460;9.240;2023-02-28T11:01:38;14.23;;;9.30;;
22851;SDS011;11592;45.460;9.240;2023-02-28T11:04:48;16.25;;;9.30;;
22851;SDS011;11592;45.460;9.240;2023-02-28T11:06:59;16.65;;;9.50;;
22851;SDS011;11592;45.460;9.240;2023-02-28T11:09:36;14.02;;;8.80;;
22851;SDS011;11592;45.460;9.240;2023-02-28T11:12:17;14.02;;;9.27;;
22851;SDS011;11592;45.460;9.240;2023-02-28T11:14:57;17.38;;;9.73;;
22851;SDS011;11592;45.460;9.240;2023-02-28T11:17:26;13.88;;;9.13;;
22851;SDS011;11592;45.460;9.240;2023-02-28T11:19:58;13.00;;;9.07;;
22851;SDS011;11592;45.460;9.240;2023-02-28T11:22:35;15.40;;;9.55;;
22851;SDS011;11592;45.460;9.240;2023-02-28T11:27:59;15.15;;;9.90;;
22851;SDS011;11592;45.460;9.240;2023-02-28T11:32:57;17.73;;;10.35;;
22851;SDS011;11592;45.460;9.240;2023-02-28T11:35:26;17.42;;;12.10;;
22851;SDS011;11592;45.460;9.240;2023-02-28T11:38:01;18.75;;;11.07;;
22851;SDS011;11592;45.460;9.240;2023-02-28T11:43:38;14.15;;;10.68;;
22851;SDS011;11592;45.460;9.240;2023-02-28T11:46:23;16.45;;;10.85;;
22851;SDS011;11592;45.460;9.240;2023-02-28T11:55:02;20.33;;;10.93;;
22851;SDS011;11592;45.460;9.240;2023-02-28T12:19:56;15.10;;;11.68;;
22851;SDS011;11592;45.460;9.240;2023-02-28T12:22:32;17.27;;;11.98;;
22851;SDS011;11592;45.460;9.240;2023-02-28T12:27:58;14.50;;;11.88;;
22851;SDS011;11592;45.460;9.240;2023-02-28T12:30:27;14.80;;;12.25;;
22851;SDS011;11592;45.460;9.240;2023-02-28T12:33:04;18.83;;;13.35;;
22851;SDS011;11592;45.460;9.240;2023-02-28T12:35:33;16.30;;;12.88;;
22851;SDS011;11592;45.460;9.240;2023-02-28T12:40:47;16.25;;;13.50;;
22851;SDS011;11592;45.460;9.240;2023-02-28T12:43:20;18.92;;;12.88;;
22851;SDS011;11592;45.460;9.240;2023-02-28T12:45:53;17.83;;;12.30;;
22851;SDS011;11592;45.460;9.240;2023-02-28T12:48:48;14.93;;;12.23;;
22851;SDS011;11592;45.460;9.240;2023-02-28T12:51:22;16.13;;;11.50;;
22851;SDS011;11592;45.460;9.240;2023-02-28T12:54:25;18.70;;;12.07;;
22851;SDS011;11592;45.460;9.240;2023-02-28T12:59:43;18.27;;;13.20;;
22851;SDS011;11592;45.460;9.240;2023-02-28T13:10:39;17.15;;;13.40;;
22851;SDS011;11592;45.460;9.240;2023-02-28T13:13:14;15.30;;;13.38;;
22851;SDS011;11592;45.460;9.240;2023-02-28T13:21:08;18.02;;;13.70;;
22851;SDS011;11592;45.460;9.240;2023-02-28T13:32:28;19.92;;;14.05;;
22851;SDS011;11592;45.460;9.240;2023-02-28T13:34:41;20.75;;;14.93;;
22851;SDS011;11592;45.460;9.240;2023-02-28T13:37:32;22.13;;;14.80;;
22851;SDS011;11592;45.460;9.240;2023-02-28T13:47:44;22.92;;;14.68;;
22851;SDS011;11592;45.460;9.240;2023-02-28T13:50:29;24.50;;;13.77;;
22851;SDS011;11592;45.460;9.240;2023-02-28T13:56:43;23.77;;;13.57;;
22851;SDS011;11592;45.460;9.240;2023-02-28T13:59:22;19.27;;;13.75;;
22851;SDS011;11592;45.460;9.240;2023-02-28T14:01:53;19.00;;;14.15;;
22851;SDS011;11592;45.460;9.240;2023-02-28T14:07:22;22.10;;;13.88;;
22851;SDS011;11592;45.460;9.240;2023-02-28T14:09:55;19.63;;;14.05;;
22851;SDS011;11592;45.460;9.240;2023-02-28T14:16:00;24.77;;;14.70;;
22851;SDS011;11592;45.460;9.240;2023-02-28T14:18:36;19.58;;;13.88;;
22851;SDS011;11592;45.460;9.240;2023-02-28T14:21:11;20.67;;;15.10;;
22851;SDS011;11592;45.460;9.240;2023-02-28T14:37:52;24.73;;;16.33;;
22851;SDS011;11592;45.460;9.240;2023-02-28T14:40:30;23.67;;;15.35;;
22851;SDS011;11592;45.460;9.240;2023-02-28T14:43:01;23.05;;;15.10;;
22851;SDS011;11592;45.460;9.240;2023-02-28T14:45:32;22.70;;;14.02;;
22851;SDS011;11592;45.460;9.240;2023-02-28T14:48:02;23.95;;;14.13;;
22851;SDS011;11592;45.460;9.240;2023-02-28T14:50:35;21.95;;;15.10;;
22851;SDS011;11592;45.460;9.240;2023-02-28T14:53:03;24.02;;;15.02;;
22851;SDS011;11592;45.460;9.240;2023-02-28T14:55:33;19.00;;;13.57;;
22851;SDS011;11592;45.460;9.240;2023-02-28T14:58:05;22.42;;;15.07;;
22851;SDS011;11592;45.460;9.240;2023-02-28T15:00:33;27.50;;;14.60;;
22851;SDS011;11592;45.460;9.240;2023-02-28T15:05:57;23.05;;;15.23;;
22851;SDS011;11592;45.460;9.240;2023-02-28T15:08:28;24.15;;;14.48;;
22851;SDS011;11592;45.460;9.240;2023-02-28T15:16:09;25.92;;;14.93;;
22851;SDS011;11592;45.460;9.240;2023-02-28T15:18:44;23.95;;;15.35;;
22851;SDS011;11592;45.460;9.240;2023-02-28T15:21:23;23.42;;;14.23;;
22851;SDS011;11592;45.460;9.240;2023-02-28T15:23:54;23.25;;;14.65;;
22851;SDS011;11592;45.460;9.240;2023-02-28T15:26:52;23.25;;;14.88;;
22851;SDS011;11592;45.460;9.240;2023-02-28T15:29:25;27.15;;;14.98;;
22851;SDS011;11592;45.460;9.240;2023-02-28T15:40:38;26.05;;;15.52;;
22851;SDS011;11592;45.460;9.240;2023-02-28T15:43:16;25.75;;;15.50;;
22851;SDS011;11592;45.460;9.240;2023-02-28T15:45:45;24.80;;;15.50;;
22851;SDS011;11592;45.460;9.240;2023-02-28T15:48:21;27.40;;;16.08;;
22851;SDS011;11592;45.460;9.240;2023-02-28T15:51:19;25.10;;;15.68;;
22851;SDS011;11592;45.460;9.240;2023-02-28T15:53:57;28.27;;;16.17;;
22851;SDS011;11592;45.460;9.240;2023-02-28T15:59:16;24.25;;;15.30;;
22851;SDS011;11592;45.460;9.240;2023-02-28T16:01:43;26.20;;;15.02;;
22851;SDS011;11592;45.460;9.240;2023-02-28T16:04:14;27.25;;;15.23;;
22851;SDS011;11592;45.460;9.240;2023-02-28T16:06:44;27.58;;;16.40;;
22851;SDS011;11592;45.460;9.240;2023-02-28T16:09:13;23.17;;;15.50;;
22851;SDS011;11592;45.460;9.240;2023-02-28T16:11:50;27.08;;;16.52;;
22851;SDS011;11592;45.460;9.240;2023-02-28T16:14:21;25.38;;;16.23;;
22851;SDS011;11592;45.460;9.240;2023-02-28T16:16:55;25.48;;;14.85;;
22851;SDS011;11592;45.460;9.240;2023-02-28T16:19:28;27.52;;;15.68;;
22851;SDS011;11592;45.460;9.240;2023-02-28T16:21:55;24.92;;;15.25;;
22851;SDS011;11592;45.460;9.240;2023-02-28T16:24:21;24.58;;;15.50;;
22851;SDS011;11592;45.460;9.240;2023-02-28T16:26:48;25.35;;;15.07;;
22851;SDS011;11592;45.460;9.240;2023-02-28T16:29:20;22.88;;;15.18;;
22851;SDS011;11592;45.460;9.240;2023-02-28T16:31:54;24.50;;;14.55;;
22851;SDS011;11592;45.460;9.240;2023-02-28T16:34:22;30.83;;;16.27;;
22851;SDS011;11592;45.460;9.240;2023-02-28T16:36:49;25.25;;;15.43;;
22851;SDS011;11592;45.460;9.240;2023-02-28T16:39:17;22.75;;;14.82;;
22851;SDS011;11592;45.460;9.240;2023-02-28T16:41:46;27.67;;;16.15;;
22851;SDS011;11592;45.460;9.240;2023-02-28T16:44:24;25.35;;;15.30;;
22851;SDS011;11592;45.460;9.240;2023-02-28T16:46:54;25.95;;;15.05;;
22851;SDS011;11592;45.460;9.240;2023-02-28T16:49:21;25.35;;;15.20;;
22851;SDS011;11592;45.460;9.240;2023-02-28T16:51:48;24.33;;;15.02;;
22851;SDS011;11592;45.460;9.240;2023-02-28T16:54:14;25.13;;;14.68;;
22851;SDS011;11592;45.460;9.240;2023-02-28T16:56:43;27.65;;;15.02;;
22851;SDS011;11592;45.460;9.240;2023-02-28T16:59:12;30.52;;;16.90;;
22851;SDS011;11592;45.460;9.240;2023-02-28T17:01:41;25.30;;;15.55;;
22851;SDS011;11592;45.460;9.240;2023-02-28T17:04:08;29.75;;;16.10;;
22851;SDS011;11592;45.460;9.240;2023-02-28T17:06:37;25.70;;;16.73;;
22851;SDS011;11592;45.460;9.240;2023-02-28T17:09:04;26.55;;;16.15;;
22851;SDS011;11592;45.460;9.240;2023-02-28T17:11:30;29.85;;;16.67;;
22851;SDS011;11592;45.460;9.240;2023-02-28T17:13:58;26.83;;;15.50;;
22851;SDS011;11592;45.460;9.240;2023-02-28T17:18:56;30.13;;;15.88;;
22851;SDS011;11592;45.460;9.240;2023-02-28T17:21:28;28.30;;;16.25;;
22851;SDS011;11592;45.460;9.240;2023-02-28T17:23:56;26.35;;;15.70;;
22851;SDS011;11592;45.460;9.240;2023-02-28T17:26:24;26.85;;;16.13;;
22851;SDS011;11592;45.460;9.240;2023-02-28T17:28:52;28.02;;;16.20;;
22851;SDS011;11592;45.460;9.240;2023-02-28T17:31:22;28.33;;;16.13;;
22851;SDS011;11592;45.460;9.240;2023-02-28T17:33:49;29.65;;;17.65;;
22851;SDS011;11592;45.460;9.240;2023-02-28T17:36:20;26.85;;;16.40;;
22851;SDS011;11592;45.460;9.240;2023-02-28T17:38:50;28.52;;;16.48;;
22851;SDS011;11592;45.460;9.240;2023-02-28T17:41:17;27.60;;;15.73;;
22851;SDS011;11592;45.460;9.240;2023-02-28T17:43:44;28.42;;;16.52;;
22851;SDS011;11592;45.460;9.240;2023-02-28T17:46:19;28.58;;;16.05;;
22851;SDS011;11592;45.460;9.240;2023-02-28T17:48:51;33.15;;;17.33;;
22851;SDS011;11592;45.460;9.240;2023-02-28T17:51:20;30.25;;;16.35;;
22851;SDS011;11592;45.460;9.240;2023-02-28T17:53:48;27.73;;;15.95;;
22851;SDS011;11592;45.460;9.240;2023-02-28T17:56:19;30.50;;;16.85;;
22851;SDS011;11592;45.460;9.240;2023-02-28T17:58:51;28.85;;;15.85;;
22851;SDS011;11592;45.460;9.240;2023-02-28T18:01:19;28.80;;;16.92;;
22851;SDS011;11592;45.460;9.240;2023-02-28T18:03:47;28.33;;;16.30;;
22851;SDS011;11592;45.460;9.240;2023-02-28T18:06:36;27.88;;;16.77;;